LRTC

Tulcea Airport

Airport
ICAO code
LRTC
IATA Code
TCE
Summary
ICAO Region
EUR
ICAO Territory
Location

, Tulcea

Serving
Tulcea
Elevation
200 ft
Coordinates
45° 3' 45" N , 28° 42' 52" E
Metar
LRTC 192230Z AUTO 00000KT 9999 NCD 21/17 Q1017

Runways

Designator Length Width Surface Rops
16/34 1986 30 CON No/No

Airport map

Aerial View

SKYbrary Partners:

Safety knowledge contributed by: